Terminal Aerodrome Forecast
Issued by NWS Corpus Christi, TX

Home | Current Version | Previous Version | Text Only | Print | Product List | Glossary On
Versions: 1 2 3 4 5 6 7 8 9 10 11 12 13 14 15 16
000
FTUS44 KCRP 221506 AAA
TAFVCT
TAF AMD
KVCT 221506Z 2215/2312 13011KT P6SM VCSH SCT025 BKN250
      TEMPO 2215/2219 4SM SHRA BR BKN015
     FM230000 12007KT P6SM SCT250
     FM230900 08004KT 5SM BR FEW250=

USA.gov is the U.S. government's official web portal to all federal, state and local government web resources and services.